sensor_id;sensor_type;location;lat;lon;timestamp;temperature;humidity
68746;SHT31;66104;45.456;11.064;2023-05-07T00:00:18;20.25;61.20
68746;SHT31;66104;45.456;11.064;2023-05-07T00:02:54;20.17;61.52
68746;SHT31;66104;45.456;11.064;2023-05-07T00:05:31;20.03;61.92
68746;SHT31;66104;45.456;11.064;2023-05-07T00:08:07;19.95;62.01
68746;SHT31;66104;45.456;11.064;2023-05-07T00:10:44;19.91;62.14
68746;SHT31;66104;45.456;11.064;2023-05-07T00:13:20;19.86;62.20
68746;SHT31;66104;45.456;11.064;2023-05-07T00:15:58;19.83;62.29
68746;SHT31;66104;45.456;11.064;2023-05-07T00:18:34;19.83;62.29
68746;SHT31;66104;45.456;11.064;2023-05-07T00:21:11;19.81;62.36
68746;SHT31;66104;45.456;11.064;2023-05-07T00:23:48;19.80;62.45
68746;SHT31;66104;45.456;11.064;2023-05-07T00:26:24;19.83;62.43
68746;SHT31;66104;45.456;11.064;2023-05-07T00:29:01;19.84;62.37
68746;SHT31;66104;45.456;11.064;2023-05-07T00:31:38;19.85;62.34
68746;SHT31;66104;45.456;11.064;2023-05-07T00:34:13;19.86;62.39
68746;SHT31;66104;45.456;11.064;2023-05-07T00:36:50;19.85;62.37
68746;SHT31;66104;45.456;11.064;2023-05-07T00:39:26;19.88;62.29
68746;SHT31;66104;45.456;11.064;2023-05-07T00:42:03;19.87;62.29
68746;SHT31;66104;45.456;11.064;2023-05-07T00:44:40;19.89;62.27
68746;SHT31;66104;45.456;11.064;2023-05-07T00:47:17;19.90;62.19
68746;SHT31;66104;45.456;11.064;2023-05-07T00:49:53;19.91;62.13
68746;SHT31;66104;45.456;11.064;2023-05-07T00:52:31;19.91;62.14
68746;SHT31;66104;45.456;11.064;2023-05-07T00:55:07;19.91;62.11
68746;SHT31;66104;45.456;11.064;2023-05-07T00:57:45;19.92;62.10
68746;SHT31;66104;45.456;11.064;2023-05-07T01:00:21;19.93;62.07
68746;SHT31;66104;45.456;11.064;2023-05-07T01:02:58;19.96;62.06
68746;SHT31;66104;45.456;11.064;2023-05-07T01:05:36;19.96;62.06
68746;SHT31;66104;45.456;11.064;2023-05-07T01:08:13;19.97;62.00
68746;SHT31;66104;45.456;11.064;2023-05-07T01:10:51;19.97;62.01
68746;SHT31;66104;45.456;11.064;2023-05-07T01:13:28;19.98;61.93
68746;SHT31;66104;45.456;11.064;2023-05-07T01:16:08;19.99;61.83
68746;SHT31;66104;45.456;11.064;2023-05-07T01:18:46;19.99;61.78
68746;SHT31;66104;45.456;11.064;2023-05-07T01:21:24;20.00;61.74
68746;SHT31;66104;45.456;11.064;2023-05-07T01:24:06;19.99;61.78
68746;SHT31;66104;45.456;11.064;2023-05-07T01:26:43;19.97;61.80
68746;SHT31;66104;45.456;11.064;2023-05-07T01:29:19;19.96;61.80
68746;SHT31;66104;45.456;11.064;2023-05-07T01:31:56;19.94;61.86
68746;SHT31;66104;45.456;11.064;2023-05-07T01:34:33;19.94;61.89
68746;SHT31;66104;45.456;11.064;2023-05-07T01:37:12;19.92;61.90
68746;SHT31;66104;45.456;11.064;2023-05-07T01:39:49;19.92;61.91
68746;SHT31;66104;45.456;11.064;2023-05-07T01:42:25;19.92;61.88
68746;SHT31;66104;45.456;11.064;2023-05-07T01:45:02;19.91;61.92
68746;SHT31;66104;45.456;11.064;2023-05-07T01:47:42;19.93;61.80
68746;SHT31;66104;45.456;11.064;2023-05-07T01:50:20;19.93;61.79
68746;SHT31;66104;45.456;11.064;2023-05-07T01:52:58;19.92;61.85
68746;SHT31;66104;45.456;11.064;2023-05-07T01:55:34;19.90;61.93
68746;SHT31;66104;45.456;11.064;2023-05-07T01:58:11;19.86;62.12
68746;SHT31;66104;45.456;11.064;2023-05-07T02:00:47;19.81;62.44
68746;SHT31;66104;45.456;11.064;2023-05-07T02:03:23;19.72;62.71
68746;SHT31;66104;45.456;11.064;2023-05-07T02:06:05;19.65;63.00
68746;SHT31;66104;45.456;11.064;2023-05-07T02:08:42;19.53;63.34
68746;SHT31;66104;45.456;11.064;2023-05-07T02:11:18;19.37;63.79
68746;SHT31;66104;45.456;11.064;2023-05-07T02:13:55;19.27;64.12
68746;SHT31;66104;45.456;11.064;2023-05-07T02:16:30;19.19;64.37
68746;SHT31;66104;45.456;11.064;2023-05-07T02:19:08;19.13;64.58
68746;SHT31;66104;45.456;11.064;2023-05-07T02:21:44;19.10;64.73
68746;SHT31;66104;45.456;11.064;2023-05-07T02:24:21;19.08;64.78
68746;SHT31;66104;45.456;11.064;2023-05-07T02:26:57;19.09;64.74
68746;SHT31;66104;45.456;11.064;2023-05-07T02:29:33;19.10;64.70
68746;SHT31;66104;45.456;11.064;2023-05-07T02:32:10;19.14;64.70
68746;SHT31;66104;45.456;11.064;2023-05-07T02:37:43;19.26;64.58
68746;SHT31;66104;45.456;11.064;2023-05-07T02:40:22;19.28;64.40
68746;SHT31;66104;45.456;11.064;2023-05-07T02:42:59;19.30;64.39
68746;SHT31;66104;45.456;11.064;2023-05-07T02:45:36;19.31;64.45
68746;SHT31;66104;45.456;11.064;2023-05-07T02:48:14;19.28;64.50
68746;SHT31;66104;45.456;11.064;2023-05-07T02:50:50;19.25;64.50
68746;SHT31;66104;45.456;11.064;2023-05-07T02:53:27;19.25;64.58
68746;SHT31;66104;45.456;11.064;2023-05-07T02:56:04;19.25;64.62
68746;SHT31;66104;45.456;11.064;2023-05-07T02:58:45;19.27;64.59
68746;SHT31;66104;45.456;11.064;2023-05-07T03:01:23;19.28;64.52
68746;SHT31;66104;45.456;11.064;2023-05-07T03:04:05;19.30;64.60
68746;SHT31;66104;45.456;11.064;2023-05-07T03:06:41;19.31;64.59
68746;SHT31;66104;45.456;11.064;2023-05-07T03:09:18;19.32;64.54
68746;SHT31;66104;45.456;11.064;2023-05-07T03:11:54;19.32;64.51
68746;SHT31;66104;45.456;11.064;2023-05-07T03:14:32;19.34;64.28
68746;SHT31;66104;45.456;11.064;2023-05-07T03:17:09;19.36;64.29
68746;SHT31;66104;45.456;11.064;2023-05-07T03:19:45;19.36;64.32
68746;SHT31;66104;45.456;11.064;2023-05-07T03:22:24;19.34;64.29
68746;SHT31;66104;45.456;11.064;2023-05-07T03:25:03;19.34;64.31
68746;SHT31;66104;45.456;11.064;2023-05-07T03:27:42;19.35;64.23
68746;SHT31;66104;45.456;11.064;2023-05-07T03:30:21;19.36;64.38
68746;SHT31;66104;45.456;11.064;2023-05-07T03:32:57;19.33;64.41
68746;SHT31;66104;45.456;11.064;2023-05-07T03:35:33;19.32;64.50
68746;SHT31;66104;45.456;11.064;2023-05-07T03:38:11;19.29;64.59
68746;SHT31;66104;45.456;11.064;2023-05-07T03:40:50;19.23;64.69
68746;SHT31;66104;45.456;11.064;2023-05-07T03:43:26;19.18;64.79
68746;SHT31;66104;45.456;11.064;2023-05-07T03:46:06;19.15;64.87
68746;SHT31;66104;45.456;11.064;2023-05-07T03:48:45;19.14;64.89
68746;SHT31;66104;45.456;11.064;2023-05-07T03:51:22;19.10;64.97
68746;SHT31;66104;45.456;11.064;2023-05-07T03:53:59;19.07;65.01
68746;SHT31;66104;45.456;11.064;2023-05-07T03:56:37;19.03;65.08
68746;SHT31;66104;45.456;11.064;2023-05-07T03:59:13;19.01;65.11
68746;SHT31;66104;45.456;11.064;2023-05-07T04:01:51;19.01;65.11
68746;SHT31;66104;45.456;11.064;2023-05-07T04:04:31;19.01;65.17
68746;SHT31;66104;45.456;11.064;2023-05-07T04:07:09;19.00;65.21
68746;SHT31;66104;45.456;11.064;2023-05-07T04:09:48;18.99;65.29
68746;SHT31;66104;45.456;11.064;2023-05-07T04:12:25;18.90;65.42
68746;SHT31;66104;45.456;11.064;2023-05-07T04:15:02;18.71;65.78
68746;SHT31;66104;45.456;11.064;2023-05-07T04:17:42;18.58;66.21
68746;SHT31;66104;45.456;11.064;2023-05-07T04:20:21;18.53;66.40
68746;SHT31;66104;45.456;11.064;2023-05-07T04:23:02;18.56;66.47
68746;SHT31;66104;45.456;11.064;2023-05-07T04:25:39;18.59;66.46
68746;SHT31;66104;45.456;11.064;2023-05-07T04:28:45;18.66;66.40
68746;SHT31;66104;45.456;11.064;2023-05-07T04:31:22;18.74;66.30
68746;SHT31;66104;45.456;11.064;2023-05-07T04:33:59;18.82;66.14
68746;SHT31;66104;45.456;11.064;2023-05-07T04:36:35;18.88;66.06
68746;SHT31;66104;45.456;11.064;2023-05-07T04:39:12;18.92;65.94
68746;SHT31;66104;45.456;11.064;2023-05-07T04:41:49;18.95;65.93
68746;SHT31;66104;45.456;11.064;2023-05-07T04:44:27;18.98;65.99
68746;SHT31;66104;45.456;11.064;2023-05-07T04:47:03;19.16;65.69
68746;SHT31;66104;45.456;11.064;2023-05-07T04:49:40;19.54;64.93
68746;SHT31;66104;45.456;11.064;2023-05-07T04:52:17;20.03;63.84
68746;SHT31;66104;45.456;11.064;2023-05-07T04:54:56;20.61;62.58
68746;SHT31;66104;45.456;11.064;2023-05-07T04:57:36;20.96;61.75
68746;SHT31;66104;45.456;11.064;2023-05-07T05:00:14;21.01;61.46
68746;SHT31;66104;45.456;11.064;2023-05-07T05:02:52;20.90;61.55
68746;SHT31;66104;45.456;11.064;2023-05-07T05:05:29;20.77;61.80
68746;SHT31;66104;45.456;11.064;2023-05-07T05:08:06;20.71;62.00
68746;SHT31;66104;45.456;11.064;2023-05-07T05:10:43;20.63;62.06
68746;SHT31;66104;45.456;11.064;2023-05-07T05:13:19;20.53;62.19
68746;SHT31;66104;45.456;11.064;2023-05-07T05:15:56;20.46;62.55
68746;SHT31;66104;45.456;11.064;2023-05-07T05:18:32;20.32;62.97
68746;SHT31;66104;45.456;11.064;2023-05-07T05:21:10;20.18;63.26
68746;SHT31;66104;45.456;11.064;2023-05-07T05:23:48;20.06;63.47
68746;SHT31;66104;45.456;11.064;2023-05-07T05:26:25;19.97;63.72
68746;SHT31;66104;45.456;11.064;2023-05-07T05:29:03;19.95;63.80
68746;SHT31;66104;45.456;11.064;2023-05-07T05:31:41;19.99;63.83
68746;SHT31;66104;45.456;11.064;2023-05-07T05:34:19;20.03;63.87
68746;SHT31;66104;45.456;11.064;2023-05-07T05:36:55;20.07;63.95
68746;SHT31;66104;45.456;11.064;2023-05-07T05:39:32;20.10;64.06
68746;SHT31;66104;45.456;11.064;2023-05-07T05:42:10;20.14;64.25
68746;SHT31;66104;45.456;11.064;2023-05-07T05:44:47;20.15;64.28
68746;SHT31;66104;45.456;11.064;2023-05-07T05:47:25;20.11;64.41
68746;SHT31;66104;45.456;11.064;2023-05-07T05:50:03;20.05;64.41
68746;SHT31;66104;45.456;11.064;2023-05-07T05:52:42;20.03;64.60
68746;SHT31;66104;45.456;11.064;2023-05-07T05:55:19;19.99;64.44
68746;SHT31;66104;45.456;11.064;2023-05-07T05:57:57;19.93;64.38
68746;SHT31;66104;45.456;11.064;2023-05-07T06:00:34;19.88;64.64
68746;SHT31;66104;45.456;11.064;2023-05-07T06:03:10;19.88;64.87
68746;SHT31;66104;45.456;11.064;2023-05-07T06:05:48;19.96;64.86
68746;SHT31;66104;45.456;11.064;2023-05-07T06:08:25;20.07;64.62
68746;SHT31;66104;45.456;11.064;2023-05-07T06:11:04;20.16;64.41
68746;SHT31;66104;45.456;11.064;2023-05-07T06:13:41;20.24;64.54
68746;SHT31;66104;45.456;11.064;2023-05-07T06:16:18;20.36;64.37
68746;SHT31;66104;45.456;11.064;2023-05-07T06:18:55;20.47;64.07
68746;SHT31;66104;45.456;11.064;2023-05-07T06:21:32;20.56;63.32
68746;SHT31;66104;45.456;11.064;2023-05-07T06:24:09;20.70;63.08
68746;SHT31;66104;45.456;11.064;2023-05-07T06:26:46;20.84;62.65
68746;SHT31;66104;45.456;11.064;2023-05-07T06:29:22;20.97;62.41
68746;SHT31;66104;45.456;11.064;2023-05-07T06:32:07;21.09;62.07
68746;SHT31;66104;45.456;11.064;2023-05-07T06:34:46;21.17;61.60
68746;SHT31;66104;45.456;11.064;2023-05-07T06:37:22;21.23;61.00
68746;SHT31;66104;45.456;11.064;2023-05-07T06:40:06;21.35;60.97
68746;SHT31;66104;45.456;11.064;2023-05-07T06:42:47;21.50;60.92
68746;SHT31;66104;45.456;11.064;2023-05-07T06:45:36;21.66;60.62
68746;SHT31;66104;45.456;11.064;2023-05-07T06:48:12;21.79;60.59
68746;SHT31;66104;45.456;11.064;2023-05-07T06:50:57;21.97;60.07
68746;SHT31;66104;45.456;11.064;2023-05-07T06:53:34;22.09;59.78
68746;SHT31;66104;45.456;11.064;2023-05-07T06:56:11;22.19;59.07
68746;SHT31;66104;45.456;11.064;2023-05-07T06:58:49;22.26;58.74
68746;SHT31;66104;45.456;11.064;2023-05-07T07:01:26;22.32;58.19
68746;SHT31;66104;45.456;11.064;2023-05-07T07:04:04;22.39;57.32
68746;SHT31;66104;45.456;11.064;2023-05-07T07:06:41;22.47;56.77
68746;SHT31;66104;45.456;11.064;2023-05-07T07:09:18;22.51;56.36
68746;SHT31;66104;45.456;11.064;2023-05-07T07:11:54;22.53;56.28
68746;SHT31;66104;45.456;11.064;2023-05-07T07:14:31;22.57;55.86
68746;SHT31;66104;45.456;11.064;2023-05-07T07:17:08;22.57;55.20
68746;SHT31;66104;45.456;11.064;2023-05-07T07:19:44;22.55;55.23
68746;SHT31;66104;45.456;11.064;2023-05-07T07:22:20;22.55;55.24
68746;SHT31;66104;45.456;11.064;2023-05-07T07:24:57;22.60;55.54
68746;SHT31;66104;45.456;11.064;2023-05-07T07:27:34;22.67;55.61
68746;SHT31;66104;45.456;11.064;2023-05-07T07:30:13;22.72;55.70
68746;SHT31;66104;45.456;11.064;2023-05-07T07:32:49;22.81;55.92
68746;SHT31;66104;45.456;11.064;2023-05-07T07:35:33;22.91;55.38
68746;SHT31;66104;45.456;11.064;2023-05-07T07:38:08;23.00;55.33
68746;SHT31;66104;45.456;11.064;2023-05-07T07:40:47;23.11;54.93
68746;SHT31;66104;45.456;11.064;2023-05-07T07:43:23;23.24;54.84
68746;SHT31;66104;45.456;11.064;2023-05-07T07:46:00;23.38;54.74
68746;SHT31;66104;45.456;11.064;2023-05-07T07:48:38;23.46;54.64
68746;SHT31;66104;45.456;11.064;2023-05-07T07:51:13;23.50;54.58
68746;SHT31;66104;45.456;11.064;2023-05-07T07:53:50;23.47;54.67
68746;SHT31;66104;45.456;11.064;2023-05-07T07:56:26;23.47;54.79
68746;SHT31;66104;45.456;11.064;2023-05-07T07:59:03;23.43;54.71
68746;SHT31;66104;45.456;11.064;2023-05-07T08:01:40;23.41;54.72
68746;SHT31;66104;45.456;11.064;2023-05-07T08:04:23;23.45;54.76
68746;SHT31;66104;45.456;11.064;2023-05-07T08:07:03;23.53;54.81
68746;SHT31;66104;45.456;11.064;2023-05-07T08:09:43;23.61;54.78
68746;SHT31;66104;45.456;11.064;2023-05-07T08:12:22;23.67;54.39
68746;SHT31;66104;45.456;11.064;2023-05-07T08:14:58;23.70;54.11
68746;SHT31;66104;45.456;11.064;2023-05-07T08:17:36;23.70;53.40
68746;SHT31;66104;45.456;11.064;2023-05-07T08:20:13;23.76;52.85
68746;SHT31;66104;45.456;11.064;2023-05-07T08:22:51;23.82;52.33
68746;SHT31;66104;45.456;11.064;2023-05-07T08:25:29;23.87;51.19
68746;SHT31;66104;45.456;11.064;2023-05-07T08:28:06;23.92;51.11
68746;SHT31;66104;45.456;11.064;2023-05-07T08:30:42;23.90;51.44
68746;SHT31;66104;45.456;11.064;2023-05-07T08:33:20;23.88;51.04
68746;SHT31;66104;45.456;11.064;2023-05-07T08:35:57;23.85;50.26
68746;SHT31;66104;45.456;11.064;2023-05-07T08:38:35;23.81;50.02
68746;SHT31;66104;45.456;11.064;2023-05-07T08:41:13;23.80;50.08
68746;SHT31;66104;45.456;11.064;2023-05-07T08:43:49;23.83;49.34
68746;SHT31;66104;45.456;11.064;2023-05-07T08:46:28;23.91;49.46
68746;SHT31;66104;45.456;11.064;2023-05-07T08:49:08;24.01;49.70
68746;SHT31;66104;45.456;11.064;2023-05-07T08:51:44;24.08;49.76
68746;SHT31;66104;45.456;11.064;2023-05-07T08:54:23;24.14;50.29
68746;SHT31;66104;45.456;11.064;2023-05-07T08:57:02;24.22;50.41
68746;SHT31;66104;45.456;11.064;2023-05-07T08:59:39;24.30;49.56
68746;SHT31;66104;45.456;11.064;2023-05-07T09:02:16;24.35;49.17
68746;SHT31;66104;45.456;11.064;2023-05-07T09:04:53;24.43;49.12
68746;SHT31;66104;45.456;11.064;2023-05-07T09:07:29;24.48;48.98
68746;SHT31;66104;45.456;11.064;2023-05-07T09:10:09;24.52;48.79
68746;SHT31;66104;45.456;11.064;2023-05-07T09:12:48;24.60;48.88
68746;SHT31;66104;45.456;11.064;2023-05-07T09:15:25;24.70;48.57
68746;SHT31;66104;45.456;11.064;2023-05-07T09:18:01;24.74;48.25
68746;SHT31;66104;45.456;11.064;2023-05-07T09:20:38;24.77;48.06
68746;SHT31;66104;45.456;11.064;2023-05-07T09:23:16;24.79;47.70
68746;SHT31;66104;45.456;11.064;2023-05-07T09:25:54;24.80;47.83
68746;SHT31;66104;45.456;11.064;2023-05-07T09:28:41;24.88;47.68
68746;SHT31;66104;45.456;11.064;2023-05-07T09:31:18;24.94;46.14
68746;SHT31;66104;45.456;11.064;2023-05-07T09:33:55;25.03;46.25
68746;SHT31;66104;45.456;11.064;2023-05-07T09:36:33;25.13;46.40
68746;SHT31;66104;45.456;11.064;2023-05-07T09:39:09;25.26;45.93
68746;SHT31;66104;45.456;11.064;2023-05-07T09:41:46;25.34;45.75
68746;SHT31;66104;45.456;11.064;2023-05-07T09:44:31;25.39;46.58
68746;SHT31;66104;45.456;11.064;2023-05-07T09:47:11;25.38;47.13
68746;SHT31;66104;45.456;11.064;2023-05-07T09:49:53;25.37;47.08
68746;SHT31;66104;45.456;11.064;2023-05-07T09:52:35;25.26;47.40
68746;SHT31;66104;45.456;11.064;2023-05-07T09:55:12;25.20;47.53
68746;SHT31;66104;45.456;11.064;2023-05-07T09:57:48;25.13;47.61
68746;SHT31;66104;45.456;11.064;2023-05-07T10:00:29;25.06;48.12
68746;SHT31;66104;45.456;11.064;2023-05-07T10:03:08;25.05;48.16
68746;SHT31;66104;45.456;11.064;2023-05-07T10:05:52;25.06;48.11
68746;SHT31;66104;45.456;11.064;2023-05-07T10:08:30;25.09;48.17
68746;SHT31;66104;45.456;11.064;2023-05-07T10:11:08;25.13;48.01
68746;SHT31;66104;45.456;11.064;2023-05-07T10:13:46;25.21;47.82
68746;SHT31;66104;45.456;11.064;2023-05-07T10:16:22;25.30;47.59
68746;SHT31;66104;45.456;11.064;2023-05-07T10:19:01;25.40;47.15
68746;SHT31;66104;45.456;11.064;2023-05-07T10:21:39;25.49;46.74
68746;SHT31;66104;45.456;11.064;2023-05-07T10:24:27;25.60;46.75
68746;SHT31;66104;45.456;11.064;2023-05-07T10:27:12;25.69;46.73
68746;SHT31;66104;45.456;11.064;2023-05-07T10:29:53;25.74;46.11
68746;SHT31;66104;45.456;11.064;2023-05-07T10:32:45;25.74;45.86
68746;SHT31;66104;45.456;11.064;2023-05-07T10:35:30;25.70;45.88
68746;SHT31;66104;45.456;11.064;2023-05-07T10:38:16;25.69;45.96
68746;SHT31;66104;45.456;11.064;2023-05-07T10:40:54;25.72;46.52
68746;SHT31;66104;45.456;11.064;2023-05-07T10:43:39;25.81;46.56
68746;SHT31;66104;45.456;11.064;2023-05-07T10:46:22;25.93;46.53
68746;SHT31;66104;45.456;11.064;2023-05-07T10:49:10;26.05;46.27
68746;SHT31;66104;45.456;11.064;2023-05-07T10:55:24;26.27;45.77
68746;SHT31;66104;45.456;11.064;2023-05-07T10:58:24;26.34;45.12
68746;SHT31;66104;45.456;11.064;2023-05-07T11:01:15;26.37;45.23
68746;SHT31;66104;45.456;11.064;2023-05-07T11:04:36;26.46;45.56
68746;SHT31;66104;45.456;11.064;2023-05-07T11:10:40;26.59;44.93
68746;SHT31;66104;45.456;11.064;2023-05-07T11:13:50;26.61;44.60
68746;SHT31;66104;45.456;11.064;2023-05-07T11:16:34;26.65;44.67
68746;SHT31;66104;45.456;11.064;2023-05-07T11:22:45;26.53;44.47
68746;SHT31;66104;45.456;11.064;2023-05-07T11:25:59;26.52;44.78
68746;SHT31;66104;45.456;11.064;2023-05-07T11:28:38;26.60;44.99
68746;SHT31;66104;45.456;11.064;2023-05-07T11:31:17;26.59;44.51
68746;SHT31;66104;45.456;11.064;2023-05-07T11:33:58;26.53;44.50
68746;SHT31;66104;45.456;11.064;2023-05-07T11:36:37;26.56;44.87
68746;SHT31;66104;45.456;11.064;2023-05-07T11:39:28;26.67;44.66
68746;SHT31;66104;45.456;11.064;2023-05-07T11:42:07;26.78;43.85
68746;SHT31;66104;45.456;11.064;2023-05-07T11:45:01;26.84;43.46
68746;SHT31;66104;45.456;11.064;2023-05-07T11:47:42;26.85;43.47
68746;SHT31;66104;45.456;11.064;2023-05-07T11:50:19;26.88;43.59
68746;SHT31;66104;45.456;11.064;2023-05-07T11:52:56;26.95;43.07
68746;SHT31;66104;45.456;11.064;2023-05-07T11:55:38;27.01;43.03
68746;SHT31;66104;45.456;11.064;2023-05-07T11:58:20;27.08;43.04
68746;SHT31;66104;45.456;11.064;2023-05-07T12:00:57;27.06;42.40
68746;SHT31;66104;45.456;11.064;2023-05-07T12:03:33;27.03;42.87
68746;SHT31;66104;45.456;11.064;2023-05-07T12:06:11;27.09;42.89
68746;SHT31;66104;45.456;11.064;2023-05-07T12:08:48;27.15;43.05
68746;SHT31;66104;45.456;11.064;2023-05-07T12:11:25;27.15;42.85
68746;SHT31;66104;45.456;11.064;2023-05-07T12:14:01;27.11;42.72
68746;SHT31;66104;45.456;11.064;2023-05-07T12:16:40;27.03;42.54
68746;SHT31;66104;45.456;11.064;2023-05-07T12:19:18;26.92;42.63
68746;SHT31;66104;45.456;11.064;2023-05-07T12:21:55;26.86;42.30
68746;SHT31;66104;45.456;11.064;2023-05-07T12:24:43;26.91;42.52
68746;SHT31;66104;45.456;11.064;2023-05-07T12:27:20;27.07;42.64
68746;SHT31;66104;45.456;11.064;2023-05-07T12:29:56;27.24;42.45
68746;SHT31;66104;45.456;11.064;2023-05-07T12:32:33;27.41;42.21
68746;SHT31;66104;45.456;11.064;2023-05-07T12:35:10;27.57;41.59
68746;SHT31;66104;45.456;11.064;2023-05-07T12:37:55;27.68;40.97
68746;SHT31;66104;45.456;11.064;2023-05-07T12:40:39;27.80;40.90
68746;SHT31;66104;45.456;11.064;2023-05-07T12:43:19;27.86;40.95
68746;SHT31;66104;45.456;11.064;2023-05-07T12:45:59;27.96;40.88
68746;SHT31;66104;45.456;11.064;2023-05-07T12:48:38;28.06;40.39
68746;SHT31;66104;45.456;11.064;2023-05-07T12:51:18;28.12;40.18
68746;SHT31;66104;45.456;11.064;2023-05-07T12:53:57;28.14;40.04
68746;SHT31;66104;45.456;11.064;2023-05-07T12:56:35;28.19;39.89
68746;SHT31;66104;45.456;11.064;2023-05-07T12:59:12;28.26;39.54
68746;SHT31;66104;45.456;11.064;2023-05-07T13:01:48;28.32;39.35
68746;SHT31;66104;45.456;11.064;2023-05-07T13:04:25;28.33;38.68
68746;SHT31;66104;45.456;11.064;2023-05-07T13:07:02;28.30;38.99
68746;SHT31;66104;45.456;11.064;2023-05-07T13:09:38;28.29;38.92
68746;SHT31;66104;45.456;11.064;2023-05-07T13:12:16;28.22;39.16
68746;SHT31;66104;45.456;11.064;2023-05-07T13:14:52;28.20;39.07
68746;SHT31;66104;45.456;11.064;2023-05-07T13:17:29;28.18;39.42
68746;SHT31;66104;45.456;11.064;2023-05-07T13:20:06;28.20;39.63
68746;SHT31;66104;45.456;11.064;2023-05-07T13:22:45;28.25;39.60
68746;SHT31;66104;45.456;11.064;2023-05-07T13:25:22;28.29;39.66
68746;SHT31;66104;45.456;11.064;2023-05-07T13:27:58;28.35;39.50
68746;SHT31;66104;45.456;11.064;2023-05-07T13:30:39;28.34;39.68
68746;SHT31;66104;45.456;11.064;2023-05-07T13:33:15;28.31;39.72
68746;SHT31;66104;45.456;11.064;2023-05-07T13:35:51;28.32;39.82
68746;SHT31;66104;45.456;11.064;2023-05-07T13:38:28;28.28;40.10
68746;SHT31;66104;45.456;11.064;2023-05-07T13:41:05;28.32;40.09
68746;SHT31;66104;45.456;11.064;2023-05-07T13:43:42;28.39;39.82
68746;SHT31;66104;45.456;11.064;2023-05-07T13:46:19;28.42;39.86
68746;SHT31;66104;45.456;11.064;2023-05-07T13:48:55;28.48;39.66
68746;SHT31;66104;45.456;11.064;2023-05-07T13:51:31;28.55;39.63
68746;SHT31;66104;45.456;11.064;2023-05-07T13:54:08;28.59;40.28
68746;SHT31;66104;45.456;11.064;2023-05-07T13:56:44;28.58;39.86
68746;SHT31;66104;45.456;11.064;2023-05-07T13:59:20;28.53;39.60
68746;SHT31;66104;45.456;11.064;2023-05-07T14:01:57;28.49;39.44
68746;SHT31;66104;45.456;11.064;2023-05-07T14:04:34;28.45;39.51
68746;SHT31;66104;45.456;11.064;2023-05-07T14:07:10;28.44;39.95
68746;SHT31;66104;45.456;11.064;2023-05-07T14:09:46;28.50;39.30
68746;SHT31;66104;45.456;11.064;2023-05-07T14:12:23;28.54;38.35
68746;SHT31;66104;45.456;11.064;2023-05-07T14:15:00;28.53;37.94
68746;SHT31;66104;45.456;11.064;2023-05-07T14:17:38;28.56;38.23
68746;SHT31;66104;45.456;11.064;2023-05-07T14:20:15;28.60;38.27
68746;SHT31;66104;45.456;11.064;2023-05-07T14:22:52;28.56;39.04
68746;SHT31;66104;45.456;11.064;2023-05-07T14:25:28;28.52;40.40
68746;SHT31;66104;45.456;11.064;2023-05-07T14:28:05;28.48;40.80
68746;SHT31;66104;45.456;11.064;2023-05-07T14:30:41;28.45;40.90
68746;SHT31;66104;45.456;11.064;2023-05-07T14:33:17;28.43;40.52
68746;SHT31;66104;45.456;11.064;2023-05-07T14:35:53;28.39;40.37
68746;SHT31;66104;45.456;11.064;2023-05-07T14:38:30;28.44;40.39
68746;SHT31;66104;45.456;11.064;2023-05-07T14:41:07;28.46;40.87
68746;SHT31;66104;45.456;11.064;2023-05-07T14:43:43;28.42;41.05
68746;SHT31;66104;45.456;11.064;2023-05-07T14:46:21;28.40;40.86
68746;SHT31;66104;45.456;11.064;2023-05-07T14:48:57;28.36;40.93
68746;SHT31;66104;45.456;11.064;2023-05-07T14:51:34;28.35;41.19
68746;SHT31;66104;45.456;11.064;2023-05-07T14:54:11;28.34;41.29
68746;SHT31;66104;45.456;11.064;2023-05-07T14:56:47;28.34;41.54
68746;SHT31;66104;45.456;11.064;2023-05-07T14:59:24;28.39;41.21
68746;SHT31;66104;45.456;11.064;2023-05-07T15:01:59;28.46;41.55
68746;SHT31;66104;45.456;11.064;2023-05-07T15:04:37;28.49;41.80
68746;SHT31;66104;45.456;11.064;2023-05-07T15:07:16;28.40;41.91
68746;SHT31;66104;45.456;11.064;2023-05-07T15:09:53;28.29;42.20
68746;SHT31;66104;45.456;11.064;2023-05-07T15:12:29;28.20;41.77
68746;SHT31;66104;45.456;11.064;2023-05-07T15:15:06;28.11;42.01
68746;SHT31;66104;45.456;11.064;2023-05-07T15:17:48;28.11;41.99
68746;SHT31;66104;45.456;11.064;2023-05-07T15:20:24;28.11;42.43
68746;SHT31;66104;45.456;11.064;2023-05-07T15:23:00;28.06;41.96
68746;SHT31;66104;45.456;11.064;2023-05-07T15:25:38;27.99;42.04
68746;SHT31;66104;45.456;11.064;2023-05-07T15:28:17;27.92;42.25
68746;SHT31;66104;45.456;11.064;2023-05-07T15:30:55;27.85;42.03
68746;SHT31;66104;45.456;11.064;2023-05-07T15:33:31;27.77;42.01
68746;SHT31;66104;45.456;11.064;2023-05-07T15:36:08;27.74;42.39
68746;SHT31;66104;45.456;11.064;2023-05-07T15:38:45;27.70;43.12
68746;SHT31;66104;45.456;11.064;2023-05-07T15:41:22;27.66;43.29
68746;SHT31;66104;45.456;11.064;2023-05-07T15:43:58;27.59;43.35
68746;SHT31;66104;45.456;11.064;2023-05-07T15:46:34;27.54;42.85
68746;SHT31;66104;45.456;11.064;2023-05-07T15:49:11;27.50;43.09
68746;SHT31;66104;45.456;11.064;2023-05-07T15:51:47;27.43;43.26
68746;SHT31;66104;45.456;11.064;2023-05-07T15:54:24;27.33;43.45
68746;SHT31;66104;45.456;11.064;2023-05-07T15:57:01;27.23;43.67
68746;SHT31;66104;45.456;11.064;2023-05-07T15:59:38;27.17;44.07
68746;SHT31;66104;45.456;11.064;2023-05-07T16:02:13;27.13;44.40
68746;SHT31;66104;45.456;11.064;2023-05-07T16:04:49;27.08;44.74
68746;SHT31;66104;45.456;11.064;2023-05-07T16:07:25;27.02;44.46
68746;SHT31;66104;45.456;11.064;2023-05-07T16:10:02;26.96;44.75
68746;SHT31;66104;45.456;11.064;2023-05-07T16:12:43;26.92;44.80
68746;SHT31;66104;45.456;11.064;2023-05-07T16:15:19;26.90;44.85
68746;SHT31;66104;45.456;11.064;2023-05-07T16:17:56;26.86;44.83
68746;SHT31;66104;45.456;11.064;2023-05-07T16:20:32;26.83;44.98
68746;SHT31;66104;45.456;11.064;2023-05-07T16:23:09;26.78;45.13
68746;SHT31;66104;45.456;11.064;2023-05-07T16:25:45;26.74;45.24
68746;SHT31;66104;45.456;11.064;2023-05-07T16:28:21;26.69;45.28
68746;SHT31;66104;45.456;11.064;2023-05-07T16:30:58;26.65;45.89
68746;SHT31;66104;45.456;11.064;2023-05-07T16:33:35;26.59;46.00
68746;SHT31;66104;45.456;11.064;2023-05-07T16:36:11;26.51;46.03